createdAt,value
2022-10-25T00:03:56.203Z,16.08
2022-10-25T00:08:58.569Z,16.36
2022-10-25T00:14:04.162Z,16.14
2022-10-25T00:19:06.615Z,16.09
2022-10-25T00:24:10.729Z,15.99
2022-10-25T00:29:13.548Z,16.07
2022-10-25T00:34:15.966Z,15.99
2022-10-25T00:39:18.474Z,15.92
2022-10-25T00:44:39.125Z,15.90
2022-10-25T00:49:42.447Z,16.04
2022-10-25T00:54:47.259Z,15.89
2022-10-25T00:59:49.796Z,15.88
2022-10-25T01:04:52.195Z,15.66
2022-10-25T01:09:54.583Z,15.52
2022-10-25T01:14:56.958Z,15.49
2022-10-25T01:20:33.179Z,15.52
2022-10-25T01:25:38.221Z,15.37
2022-10-25T01:31:17.429Z,15.12
2022-10-25T01:36:44.997Z,14.97
2022-10-25T01:42:05.624Z,15.02
2022-10-25T01:47:15.644Z,14.95
2022-10-25T01:52:22.535Z,15.07
2022-10-25T01:57:46.774Z,15.04
2022-10-25T02:03:15.007Z,14.90
2022-10-25T02:08:23.139Z,14.95
2022-10-25T02:13:49.002Z,14.92
2022-10-25T02:18:55.666Z,14.91
2022-10-25T02:23:59.308Z,15.01
2022-10-25T02:29:04.485Z,15.11
2022-10-25T02:34:07.160Z,15.03
2022-10-25T02:39:09.486Z,15.12
2022-10-25T02:44:11.775Z,15.16
2022-10-25T02:49:14.056Z,15.21
2022-10-25T02:54:16.472Z,15.32
2022-10-25T02:59:20.073Z,15.05
2022-10-25T03:04:22.556Z,15.01
2022-10-25T03:09:24.839Z,15.09
2022-10-25T03:14:27.127Z,15.18
2022-10-25T03:19:29.483Z,15.32
2022-10-25T03:24:31.866Z,15.15
2022-10-25T03:29:34.195Z,14.96
2022-10-25T03:34:36.537Z,14.92
2022-10-25T03:39:38.919Z,14.79
2022-10-25T03:44:41.334Z,14.82
2022-10-25T03:49:43.659Z,14.70
2022-10-25T03:54:45.998Z,14.98
2022-10-25T03:59:48.272Z,15.01
2022-10-25T04:04:50.661Z,14.78
2022-10-25T04:09:53.050Z,14.75
2022-10-25T04:14:55.468Z,14.82
2022-10-25T04:19:57.756Z,14.89
2022-10-25T04:25:00.166Z,14.78
2022-10-25T04:30:02.571Z,14.78
2022-10-25T04:35:05.349Z,14.64
2022-10-25T04:40:08.271Z,14.89
2022-10-25T04:45:10.807Z,14.81
2022-10-25T04:50:13.170Z,14.60
2022-10-25T04:55:15.593Z,14.62
2022-10-25T05:00:17.932Z,14.60
2022-10-25T05:05:21.118Z,14.54
2022-10-25T05:10:23.481Z,14.45
2022-10-25T05:15:25.875Z,14.58
2022-10-25T05:20:29.253Z,14.57
2022-10-25T05:25:31.687Z,14.49
2022-10-25T05:30:34.021Z,14.34
2022-10-25T05:35:36.694Z,14.36
2022-10-25T05:40:38.934Z,14.41
2022-10-25T05:45:41.256Z,14.21
2022-10-25T05:50:43.586Z,14.33
2022-10-25T05:55:45.843Z,14.38
2022-10-25T06:00:48.184Z,14.60
2022-10-25T06:05:50.468Z,14.77
2022-10-25T06:10:52.732Z,14.71
2022-10-25T06:15:55.025Z,14.60
2022-10-25T06:20:57.322Z,14.73
2022-10-25T06:26:06.478Z,14.62
2022-10-25T06:31:11.847Z,14.71
2022-10-25T06:36:19.404Z,14.87
2022-10-25T06:41:22.712Z,15.02
2022-10-25T06:46:30.669Z,14.80
2022-10-25T06:51:34.541Z,14.84
2022-10-25T06:56:37.279Z,14.71
2022-10-25T07:01:39.672Z,14.73
2022-10-25T07:06:42.033Z,14.86
2022-10-25T07:11:45.843Z,15.03
2022-10-25T07:16:48.167Z,15.16
2022-10-25T07:21:50.650Z,15.17
2022-10-25T07:26:52.947Z,15.44
2022-10-25T07:31:55.339Z,15.66
2022-10-25T07:36:57.714Z,15.74
2022-10-25T07:42:00.085Z,15.65
2022-10-25T07:47:02.387Z,15.80
2022-10-25T07:52:04.810Z,15.74
2022-10-25T07:57:07.227Z,15.81
2022-10-25T08:02:12.262Z,15.84
2022-10-25T08:07:14.650Z,15.71
2022-10-25T08:12:21.602Z,15.59
2022-10-25T08:17:24.891Z,15.66
2022-10-25T08:22:27.227Z,15.83
2022-10-25T08:27:29.617Z,16.14
2022-10-25T08:32:31.982Z,16.37
2022-10-25T08:37:34.313Z,16.35
2022-10-25T08:42:58.577Z,16.68
2022-10-25T08:48:01.378Z,16.56
2022-10-25T08:53:06.616Z,16.46
2022-10-25T08:58:22.431Z,16.79
2022-10-25T09:03:26.854Z,16.79
2022-10-25T09:08:59.921Z,16.90
2022-10-25T09:14:19.769Z,17.28
2022-10-25T09:19:26.576Z,17.78
2022-10-25T09:24:36.624Z,18.12
2022-10-25T09:29:50.574Z,18.06
2022-10-25T09:34:54.732Z,18.34
2022-10-25T09:40:00.739Z,18.63
2022-10-25T09:45:08.176Z,18.61
2022-10-25T09:50:31.415Z,18.55
2022-10-25T09:55:47.019Z,18.37
2022-10-25T10:00:51.115Z,18.42
2022-10-25T10:05:58.130Z,17.98
2022-10-25T10:11:00.584Z,17.80
2022-10-25T10:16:35.708Z,17.76
2022-10-25T10:21:38.411Z,17.39
2022-10-25T10:26:49.708Z,17.55
2022-10-25T10:31:54.482Z,17.36
2022-10-25T10:37:07.967Z,17.40
2022-10-25T10:42:22.250Z,17.51
2022-10-25T10:47:26.316Z,17.30
2022-10-25T10:52:32.975Z,16.97
2022-10-25T10:57:36.133Z,17.03
2022-10-25T11:02:41.837Z,17.01
2022-10-25T11:07:44.562Z,17.16
2022-10-25T11:13:05.296Z,17.31
2022-10-25T11:18:08.536Z,17.50
2022-10-25T11:23:32.602Z,17.46
2022-10-25T11:28:49.137Z,17.72
2022-10-25T11:34:20.404Z,17.58
2022-10-25T11:40:14.949Z,17.86
2022-10-25T11:45:33.483Z,17.35
2022-10-25T11:50:57.830Z,17.96
2022-10-25T11:56:01.542Z,17.83
2022-10-25T12:01:48.985Z,17.89
2022-10-25T12:07:30.725Z,18.19
2022-10-25T12:13:01.699Z,17.86
2022-10-25T12:18:06.643Z,17.57
2022-10-25T12:23:13.584Z,17.12
2022-10-25T12:28:45.579Z,17.17
2022-10-25T12:33:54.977Z,17.01
2022-10-25T12:39:00.831Z,17.05
2022-10-25T12:44:15.243Z,17.10
2022-10-25T12:50:05.081Z,16.83
2022-10-25T12:55:07.343Z,17.16
2022-10-25T13:00:11.772Z,16.96
2022-10-25T13:05:32.126Z,17.01
2022-10-25T13:10:43.351Z,16.81
2022-10-25T13:15:50.292Z,16.75
2022-10-25T13:20:53.179Z,16.62
2022-10-25T13:26:08.576Z,16.37
2022-10-25T13:31:35.572Z,16.17
2022-10-25T13:36:48.486Z,16.14
2022-10-25T13:41:50.950Z,16.29
2022-10-25T13:46:55.060Z,16.61
2022-10-25T13:51:59.338Z,17.33
2022-10-25T13:57:01.574Z,17.52
2022-10-25T14:02:19.491Z,17.53
2022-10-25T14:07:47.836Z,17.16
2022-10-25T14:12:53.660Z,16.70
2022-10-25T14:17:56.642Z,16.45
2022-10-25T14:23:07.863Z,16.69
2022-10-25T14:28:29.511Z,16.90
2022-10-25T14:33:53.054Z,16.30
2022-10-25T14:39:01.010Z,16.10
2022-10-25T14:44:03.455Z,16.12
2022-10-25T14:49:10.041Z,15.95
2022-10-25T14:54:15.094Z,15.90
2022-10-25T14:59:45.052Z,16.00
2022-10-25T15:04:49.928Z,16.11
2022-10-25T15:09:54.070Z,16.11
2022-10-25T15:14:59.451Z,16.04
2022-10-25T15:20:16.556Z,16.16
2022-10-25T15:25:24.758Z,16.00
2022-10-25T15:30:40.507Z,16.02
2022-10-25T15:35:48.445Z,15.93
2022-10-25T15:40:50.944Z,15.88
2022-10-25T15:45:54.824Z,15.96
2022-10-25T15:50:58.441Z,15.92
2022-10-25T15:56:00.748Z,15.82
2022-10-25T16:01:03.140Z,15.84
2022-10-25T16:06:05.961Z,15.73
2022-10-25T16:11:14.801Z,15.44
2022-10-25T16:16:39.507Z,15.24
2022-10-25T16:21:43.716Z,15.08
2022-10-25T16:26:47.885Z,14.96
2022-10-25T16:31:50.351Z,14.62
2022-10-25T16:36:52.952Z,14.48
2022-10-25T16:41:58.386Z,14.59
2022-10-25T16:47:00.747Z,14.59
2022-10-25T16:52:03.301Z,14.68
2022-10-25T16:57:05.962Z,14.45
2022-10-25T17:02:26.695Z,14.21
2022-10-25T17:07:30.569Z,14.01
2022-10-25T17:12:32.910Z,14.01
2022-10-25T17:17:35.247Z,14.20
2022-10-25T17:22:38.510Z,14.00
2022-10-25T17:27:45.475Z,14.01
2022-10-25T17:32:48.459Z,14.24
2022-10-25T17:37:54.686Z,14.19
2022-10-25T17:42:56.977Z,14.14
2022-10-25T17:48:00.403Z,14.13
2022-10-25T17:53:02.953Z,14.05
2022-10-25T17:58:05.250Z,14.06
2022-10-25T18:03:07.578Z,14.20
2022-10-25T18:08:10.101Z,14.03
2022-10-25T18:13:12.429Z,13.88
2022-10-25T18:18:14.713Z,13.73
2022-10-25T18:23:17.914Z,13.69
2022-10-25T18:28:20.299Z,13.56
2022-10-25T18:33:25.153Z,13.69
2022-10-25T18:38:27.644Z,13.57
2022-10-25T18:43:30.114Z,13.70
2022-10-25T18:48:32.528Z,13.68
2022-10-25T18:53:39.606Z,13.55
2022-10-25T18:58:42.555Z,13.43
2022-10-25T19:03:45.399Z,13.43
2022-10-25T19:08:49.335Z,13.39
2022-10-25T19:13:55.606Z,13.30
2022-10-25T19:19:02.434Z,13.24
2022-10-25T19:24:05.318Z,13.10
2022-10-25T19:29:07.614Z,13.14
2022-10-25T19:34:09.942Z,13.13
2022-10-25T19:39:12.252Z,13.04
2022-10-25T19:44:14.610Z,13.11
2022-10-25T19:49:17.430Z,13.27
2022-10-25T19:54:20.037Z,13.34
2022-10-25T19:59:22.471Z,13.42
2022-10-25T20:04:24.991Z,13.52
2022-10-25T20:09:27.336Z,13.60
2022-10-25T20:14:30.938Z,13.65
2022-10-25T20:19:33.297Z,13.58
2022-10-25T20:24:35.713Z,13.42
2022-10-25T20:29:37.975Z,13.50
2022-10-25T20:34:40.290Z,13.49
2022-10-25T20:39:42.781Z,13.40
2022-10-25T20:44:45.127Z,13.22
2022-10-25T20:49:47.432Z,13.23
2022-10-25T20:54:50.210Z,13.30
2022-10-25T20:59:52.529Z,13.49
2022-10-25T21:04:54.910Z,13.50
2022-10-25T21:09:57.328Z,13.54
2022-10-25T21:14:59.655Z,13.50
2022-10-25T21:20:02.114Z,13.36
2022-10-25T21:25:04.559Z,13.46
2022-10-25T21:30:07.867Z,13.47
2022-10-25T21:35:10.256Z,13.28
2022-10-25T21:40:12.725Z,13.07
2022-10-25T21:45:15.071Z,13.09
2022-10-25T21:50:17.452Z,12.76
2022-10-25T21:55:19.749Z,12.50
2022-10-25T22:00:22.039Z,12.46
2022-10-25T22:05:24.390Z,12.68
2022-10-25T22:10:26.910Z,12.67
2022-10-25T22:15:29.179Z,12.64
2022-10-25T22:20:31.480Z,12.53
2022-10-25T22:25:33.797Z,12.28
2022-10-25T22:30:36.115Z,12.20
2022-10-25T22:35:38.540Z,12.07
2022-10-25T22:40:41.430Z,12.13
2022-10-25T22:45:43.733Z,11.93
2022-10-25T22:50:54.114Z,11.95
2022-10-25T22:56:05.280Z,11.92
2022-10-25T23:01:11.517Z,12.06
2022-10-25T23:06:15.837Z,12.17
2022-10-25T23:11:20.624Z,12.03
2022-10-25T23:16:22.886Z,12.19
2022-10-25T23:21:26.993Z,12.19
2022-10-25T23:26:34.351Z,12.22
2022-10-25T23:31:37.245Z,12.05
2022-10-25T23:36:39.563Z,12.29
2022-10-25T23:41:41.888Z,12.13
2022-10-25T23:46:44.219Z,12.05
2022-10-25T23:51:46.816Z,12.15
2022-10-25T23:56:49.142Z,12.11
